sensor_id;sensor_type;location;lat;lon;timestamp;temperature;humidity
24164;DHT22;12319;49.204;8.116;2023-05-10T00:00:37;15.50;99.90
24164;DHT22;12319;49.204;8.116;2023-05-10T00:03:02;15.50;99.90
24164;DHT22;12319;49.204;8.116;2023-05-10T00:05:30;15.40;99.90
24164;DHT22;12319;49.204;8.116;2023-05-10T00:07:56;15.40;99.90
24164;DHT22;12319;49.204;8.116;2023-05-10T00:10:22;15.40;99.80
24164;DHT22;12319;49.204;8.116;2023-05-10T00:12:47;15.40;99.90
24164;DHT22;12319;49.204;8.116;2023-05-10T00:15:13;15.40;99.90
24164;DHT22;12319;49.204;8.116;2023-05-10T00:17:38;15.40;99.80
24164;DHT22;12319;49.204;8.116;2023-05-10T00:20:04;15.30;99.80
24164;DHT22;12319;49.204;8.116;2023-05-10T00:22:31;15.30;99.80
24164;DHT22;12319;49.204;8.116;2023-05-10T00:24:57;15.30;99.80
24164;DHT22;12319;49.204;8.116;2023-05-10T00:27:23;15.30;99.80
24164;DHT22;12319;49.204;8.116;2023-05-10T00:29:48;15.20;99.90
24164;DHT22;12319;49.204;8.116;2023-05-10T00:32:14;15.20;99.80
24164;DHT22;12319;49.204;8.116;2023-05-10T00:34:39;15.20;99.80
24164;DHT22;12319;49.204;8.116;2023-05-10T00:37:05;15.20;99.90
24164;DHT22;12319;49.204;8.116;2023-05-10T00:39:30;15.20;99.90
24164;DHT22;12319;49.204;8.116;2023-05-10T00:41:56;15.20;99.90
24164;DHT22;12319;49.204;8.116;2023-05-10T00:44:21;15.30;99.90
24164;DHT22;12319;49.204;8.116;2023-05-10T00:46:48;15.10;99.90
24164;DHT22;12319;49.204;8.116;2023-05-10T00:49:14;15.30;99.90
24164;DHT22;12319;49.204;8.116;2023-05-10T00:51:40;15.20;99.90
24164;DHT22;12319;49.204;8.116;2023-05-10T00:54:09;15.20;99.90
24164;DHT22;12319;49.204;8.116;2023-05-10T00:56:35;15.20;99.80
24164;DHT22;12319;49.204;8.116;2023-05-10T00:59:01;15.20;99.80
24164;DHT22;12319;49.204;8.116;2023-05-10T01:01:28;15.10;99.90
24164;DHT22;12319;49.204;8.116;2023-05-10T01:03:54;15.20;99.80
24164;DHT22;12319;49.204;8.116;2023-05-10T01:06:20;15.10;99.80
24164;DHT22;12319;49.204;8.116;2023-05-10T01:08:46;15.30;99.80
24164;DHT22;12319;49.204;8.116;2023-05-10T01:11:13;15.20;99.70
24164;DHT22;12319;49.204;8.116;2023-05-10T01:13:41;15.20;99.70
24164;DHT22;12319;49.204;8.116;2023-05-10T01:16:07;15.20;99.70
24164;DHT22;12319;49.204;8.116;2023-05-10T01:18:40;15.10;99.60
24164;DHT22;12319;49.204;8.116;2023-05-10T01:30:05;15.20;99.80
24164;DHT22;12319;49.204;8.116;2023-05-10T01:32:58;15.20;99.90
24164;DHT22;12319;49.204;8.116;2023-05-10T01:35:37;15.20;99.90
24164;DHT22;12319;49.204;8.116;2023-05-10T01:38:17;15.20;99.90
24164;DHT22;12319;49.204;8.116;2023-05-10T01:41:04;15.20;99.90
24164;DHT22;12319;49.204;8.116;2023-05-10T01:43:42;15.20;99.90
24164;DHT22;12319;49.204;8.116;2023-05-10T01:46:13;15.30;99.90
24164;DHT22;12319;49.204;8.116;2023-05-10T01:48:47;15.30;99.90
24164;DHT22;12319;49.204;8.116;2023-05-10T01:51:19;15.30;99.90
24164;DHT22;12319;49.204;8.116;2023-05-10T01:53:48;15.30;99.90
24164;DHT22;12319;49.204;8.116;2023-05-10T01:56:15;15.30;99.90
24164;DHT22;12319;49.204;8.116;2023-05-10T01:58:43;15.30;99.90
24164;DHT22;12319;49.204;8.116;2023-05-10T02:01:11;15.30;99.90
24164;DHT22;12319;49.204;8.116;2023-05-10T02:03:38;15.30;99.90
24164;DHT22;12319;49.204;8.116;2023-05-10T02:06:05;15.30;99.90
24164;DHT22;12319;49.204;8.116;2023-05-10T02:08:34;15.30;99.90
24164;DHT22;12319;49.204;8.116;2023-05-10T02:11:02;15.30;99.90
24164;DHT22;12319;49.204;8.116;2023-05-10T02:13:29;15.30;99.90
24164;DHT22;12319;49.204;8.116;2023-05-10T02:15:57;15.30;99.90
24164;DHT22;12319;49.204;8.116;2023-05-10T02:18:23;15.30;99.90
24164;DHT22;12319;49.204;8.116;2023-05-10T02:20:52;15.20;99.90
24164;DHT22;12319;49.204;8.116;2023-05-10T02:23:20;15.30;99.90
24164;DHT22;12319;49.204;8.116;2023-05-10T02:25:47;15.30;99.90
24164;DHT22;12319;49.204;8.116;2023-05-10T02:28:14;15.20;99.90
24164;DHT22;12319;49.204;8.116;2023-05-10T02:30:41;15.10;99.90
24164;DHT22;12319;49.204;8.116;2023-05-10T02:33:07;15.10;99.90
24164;DHT22;12319;49.204;8.116;2023-05-10T02:35:34;15.10;99.90
24164;DHT22;12319;49.204;8.116;2023-05-10T02:38:01;15.20;99.90
24164;DHT22;12319;49.204;8.116;2023-05-10T02:40:27;15.10;99.90
24164;DHT22;12319;49.204;8.116;2023-05-10T02:42:55;15.10;99.90
24164;DHT22;12319;49.204;8.116;2023-05-10T02:45:24;15.10;99.90
24164;DHT22;12319;49.204;8.116;2023-05-10T02:47:51;15.00;99.90
24164;DHT22;12319;49.204;8.116;2023-05-10T02:50:18;15.00;99.90
24164;DHT22;12319;49.204;8.116;2023-05-10T02:52:46;15.00;99.90
24164;DHT22;12319;49.204;8.116;2023-05-10T02:55:15;15.00;99.90
24164;DHT22;12319;49.204;8.116;2023-05-10T02:57:47;15.00;99.90
24164;DHT22;12319;49.204;8.116;2023-05-10T03:00:14;15.00;99.90
24164;DHT22;12319;49.204;8.116;2023-05-10T03:02:40;15.10;99.90
24164;DHT22;12319;49.204;8.116;2023-05-10T03:05:05;15.10;99.90
24164;DHT22;12319;49.204;8.116;2023-05-10T03:07:32;15.10;99.90
24164;DHT22;12319;49.204;8.116;2023-05-10T03:09:58;15.10;99.90
24164;DHT22;12319;49.204;8.116;2023-05-10T03:12:40;15.10;99.90
24164;DHT22;12319;49.204;8.116;2023-05-10T03:18:18;15.20;99.90
24164;DHT22;12319;49.204;8.116;2023-05-10T03:20:48;15.20;99.90
24164;DHT22;12319;49.204;8.116;2023-05-10T03:24:04;15.10;99.90
24164;DHT22;12319;49.204;8.116;2023-05-10T03:26:24;15.10;99.90
24164;DHT22;12319;49.204;8.116;2023-05-10T03:28:52;15.10;99.90
24164;DHT22;12319;49.204;8.116;2023-05-10T03:31:18;15.10;99.90
24164;DHT22;12319;49.204;8.116;2023-05-10T03:33:50;15.10;99.90
24164;DHT22;12319;49.204;8.116;2023-05-10T03:36:17;15.10;99.90
24164;DHT22;12319;49.204;8.116;2023-05-10T03:38:42;15.10;99.90
24164;DHT22;12319;49.204;8.116;2023-05-10T03:41:08;15.00;99.90
24164;DHT22;12319;49.204;8.116;2023-05-10T03:43:33;15.00;99.90
24164;DHT22;12319;49.204;8.116;2023-05-10T03:46:02;14.90;99.90
24164;DHT22;12319;49.204;8.116;2023-05-10T03:48:27;14.90;99.90
24164;DHT22;12319;49.204;8.116;2023-05-10T03:50:53;14.90;99.90
24164;DHT22;12319;49.204;8.116;2023-05-10T03:53:18;14.90;99.90
24164;DHT22;12319;49.204;8.116;2023-05-10T03:55:44;14.90;99.90
24164;DHT22;12319;49.204;8.116;2023-05-10T03:58:13;14.90;99.90
24164;DHT22;12319;49.204;8.116;2023-05-10T04:00:38;14.90;99.90
24164;DHT22;12319;49.204;8.116;2023-05-10T04:03:09;14.90;99.90
24164;DHT22;12319;49.204;8.116;2023-05-10T04:05:35;15.00;99.90
24164;DHT22;12319;49.204;8.116;2023-05-10T04:08:01;14.90;99.90
24164;DHT22;12319;49.204;8.116;2023-05-10T04:10:26;15.00;99.90
24164;DHT22;12319;49.204;8.116;2023-05-10T04:12:52;15.00;99.90
24164;DHT22;12319;49.204;8.116;2023-05-10T04:15:17;15.00;99.90
24164;DHT22;12319;49.204;8.116;2023-05-10T04:17:43;15.10;99.90
24164;DHT22;12319;49.204;8.116;2023-05-10T04:20:09;15.10;99.90
24164;DHT22;12319;49.204;8.116;2023-05-10T04:22:35;15.10;99.90
24164;DHT22;12319;49.204;8.116;2023-05-10T04:25:00;15.10;99.90
24164;DHT22;12319;49.204;8.116;2023-05-10T04:27:26;15.20;99.90
24164;DHT22;12319;49.204;8.116;2023-05-10T04:29:52;15.20;99.90
24164;DHT22;12319;49.204;8.116;2023-05-10T04:32:17;15.20;99.90
24164;DHT22;12319;49.204;8.116;2023-05-10T04:34:44;15.20;99.90
24164;DHT22;12319;49.204;8.116;2023-05-10T04:37:09;15.20;99.90
24164;DHT22;12319;49.204;8.116;2023-05-10T04:39:35;15.20;99.90
24164;DHT22;12319;49.204;8.116;2023-05-10T04:42:02;15.20;99.90
24164;DHT22;12319;49.204;8.116;2023-05-10T04:44:28;15.30;99.90
24164;DHT22;12319;49.204;8.116;2023-05-10T04:46:54;15.30;99.90
24164;DHT22;12319;49.204;8.116;2023-05-10T04:49:20;15.30;99.90
24164;DHT22;12319;49.204;8.116;2023-05-10T04:51:45;15.30;99.90
24164;DHT22;12319;49.204;8.116;2023-05-10T04:54:11;15.40;99.90
24164;DHT22;12319;49.204;8.116;2023-05-10T04:56:37;15.30;99.90
24164;DHT22;12319;49.204;8.116;2023-05-10T04:59:02;15.30;99.90
24164;DHT22;12319;49.204;8.116;2023-05-10T05:01:28;15.30;99.90
24164;DHT22;12319;49.204;8.116;2023-05-10T05:03:53;15.30;99.90
24164;DHT22;12319;49.204;8.116;2023-05-10T05:06:19;15.30;99.90
24164;DHT22;12319;49.204;8.116;2023-05-10T05:08:46;15.30;99.90
24164;DHT22;12319;49.204;8.116;2023-05-10T05:11:11;15.30;99.90
24164;DHT22;12319;49.204;8.116;2023-05-10T05:13:37;15.30;99.90
24164;DHT22;12319;49.204;8.116;2023-05-10T05:16:03;15.30;99.90
24164;DHT22;12319;49.204;8.116;2023-05-10T05:18:28;15.30;99.90
24164;DHT22;12319;49.204;8.116;2023-05-10T05:20:54;15.30;99.90
24164;DHT22;12319;49.204;8.116;2023-05-10T05:23:19;15.30;99.90
24164;DHT22;12319;49.204;8.116;2023-05-10T05:25:46;15.30;99.90
24164;DHT22;12319;49.204;8.116;2023-05-10T05:28:12;15.30;99.90
24164;DHT22;12319;49.204;8.116;2023-05-10T05:30:37;15.30;99.90
24164;DHT22;12319;49.204;8.116;2023-05-10T05:33:03;15.30;99.90
24164;DHT22;12319;49.204;8.116;2023-05-10T05:35:28;15.30;99.90
24164;DHT22;12319;49.204;8.116;2023-05-10T05:37:54;15.30;99.90
24164;DHT22;12319;49.204;8.116;2023-05-10T05:40:20;15.40;99.90
24164;DHT22;12319;49.204;8.116;2023-05-10T05:42:45;15.40;99.90
24164;DHT22;12319;49.204;8.116;2023-05-10T05:45:11;15.40;99.90
24164;DHT22;12319;49.204;8.116;2023-05-10T05:47:39;15.50;99.90
24164;DHT22;12319;49.204;8.116;2023-05-10T05:50:05;15.60;99.90
24164;DHT22;12319;49.204;8.116;2023-05-10T05:52:31;15.60;99.90
24164;DHT22;12319;49.204;8.116;2023-05-10T05:54:56;15.70;99.90
24164;DHT22;12319;49.204;8.116;2023-05-10T05:57:22;15.80;99.90
24164;DHT22;12319;49.204;8.116;2023-05-10T05:59:48;15.80;99.90
24164;DHT22;12319;49.204;8.116;2023-05-10T06:02:13;15.90;99.90
24164;DHT22;12319;49.204;8.116;2023-05-10T06:04:39;16.00;99.80
24164;DHT22;12319;49.204;8.116;2023-05-10T06:07:05;16.10;99.70
24164;DHT22;12319;49.204;8.116;2023-05-10T06:09:31;16.30;99.70
24164;DHT22;12319;49.204;8.116;2023-05-10T06:11:56;16.40;99.50
24164;DHT22;12319;49.204;8.116;2023-05-10T06:14:22;16.60;99.40
24164;DHT22;12319;49.204;8.116;2023-05-10T06:16:48;16.80;99.30
24164;DHT22;12319;49.204;8.116;2023-05-10T06:19:13;17.30;99.40
24164;DHT22;12319;49.204;8.116;2023-05-10T06:21:39;17.40;99.00
24164;DHT22;12319;49.204;8.116;2023-05-10T06:24:05;17.70;98.60
24164;DHT22;12319;49.204;8.116;2023-05-10T06:26:32;18.40;98.60
24164;DHT22;12319;49.204;8.116;2023-05-10T06:28:57;18.90;97.50
24164;DHT22;12319;49.204;8.116;2023-05-10T06:31:23;19.10;96.90
24164;DHT22;12319;49.204;8.116;2023-05-10T06:33:48;19.00;96.30
24164;DHT22;12319;49.204;8.116;2023-05-10T06:36:14;18.80;96.30
24164;DHT22;12319;49.204;8.116;2023-05-10T06:38:40;19.00;96.70
24164;DHT22;12319;49.204;8.116;2023-05-10T06:41:05;19.30;96.20
24164;DHT22;12319;49.204;8.116;2023-05-10T06:43:31;19.60;96.40
24164;DHT22;12319;49.204;8.116;2023-05-10T06:45:57;19.60;95.80
24164;DHT22;12319;49.204;8.116;2023-05-10T06:48:22;19.90;95.90
24164;DHT22;12319;49.204;8.116;2023-05-10T06:50:48;20.30;95.40
24164;DHT22;12319;49.204;8.116;2023-05-10T06:53:14;20.60;95.30
24164;DHT22;12319;49.204;8.116;2023-05-10T06:55:39;21.10;94.70
24164;DHT22;12319;49.204;8.116;2023-05-10T06:58:05;21.10;94.00
24164;DHT22;12319;49.204;8.116;2023-05-10T07:00:31;20.90;93.50
24164;DHT22;12319;49.204;8.116;2023-05-10T07:02:57;20.90;93.80
24164;DHT22;12319;49.204;8.116;2023-05-10T07:05:22;20.90;93.30
24164;DHT22;12319;49.204;8.116;2023-05-10T07:07:48;20.80;92.90
24164;DHT22;12319;49.204;8.116;2023-05-10T07:10:13;20.60;92.40
24164;DHT22;12319;49.204;8.116;2023-05-10T07:12:39;21.00;93.10
24164;DHT22;12319;49.204;8.116;2023-05-10T07:15:05;21.20;92.30
24164;DHT22;12319;49.204;8.116;2023-05-10T07:17:31;21.60;92.70
24164;DHT22;12319;49.204;8.116;2023-05-10T07:19:58;22.00;92.00
24164;DHT22;12319;49.204;8.116;2023-05-10T07:22:24;22.30;91.70
24164;DHT22;12319;49.204;8.116;2023-05-10T07:24:50;22.30;91.10
24164;DHT22;12319;49.204;8.116;2023-05-10T07:27:15;22.80;90.40
24164;DHT22;12319;49.204;8.116;2023-05-10T07:29:41;23.20;89.20
24164;DHT22;12319;49.204;8.116;2023-05-10T07:32:06;23.40;88.70
24164;DHT22;12319;49.204;8.116;2023-05-10T07:34:32;23.60;87.70
24164;DHT22;12319;49.204;8.116;2023-05-10T07:37:01;23.70;86.00
24164;DHT22;12319;49.204;8.116;2023-05-10T07:39:27;23.40;84.50
24164;DHT22;12319;49.204;8.116;2023-05-10T07:41:53;23.00;82.80
24164;DHT22;12319;49.204;8.116;2023-05-10T07:44:18;22.70;83.90
24164;DHT22;12319;49.204;8.116;2023-05-10T07:46:45;22.40;82.90
24164;DHT22;12319;49.204;8.116;2023-05-10T07:49:11;22.00;83.80
24164;DHT22;12319;49.204;8.116;2023-05-10T07:51:36;21.60;83.70
24164;DHT22;12319;49.204;8.116;2023-05-10T07:54:02;21.20;83.20
24164;DHT22;12319;49.204;8.116;2023-05-10T07:56:32;20.90;84.40
24164;DHT22;12319;49.204;8.116;2023-05-10T07:59:02;20.60;85.20
24164;DHT22;12319;49.204;8.116;2023-05-10T08:01:34;20.30;84.70
24164;DHT22;12319;49.204;8.116;2023-05-10T08:04:00;20.20;84.90
24164;DHT22;12319;49.204;8.116;2023-05-10T08:06:26;20.00;86.20
24164;DHT22;12319;49.204;8.116;2023-05-10T08:08:55;19.90;86.10
24164;DHT22;12319;49.204;8.116;2023-05-10T08:11:21;19.70;85.80
24164;DHT22;12319;49.204;8.116;2023-05-10T08:13:48;19.40;86.00
24164;DHT22;12319;49.204;8.116;2023-05-10T08:16:13;19.20;86.10
24164;DHT22;12319;49.204;8.116;2023-05-10T08:18:39;19.10;86.40
24164;DHT22;12319;49.204;8.116;2023-05-10T08:21:05;19.10;87.30
24164;DHT22;12319;49.204;8.116;2023-05-10T08:23:31;19.80;89.00
24164;DHT22;12319;49.204;8.116;2023-05-10T08:25:57;21.00;88.90
24164;DHT22;12319;49.204;8.116;2023-05-10T08:28:22;22.30;86.80
24164;DHT22;12319;49.204;8.116;2023-05-10T08:30:52;22.90;79.30
24164;DHT22;12319;49.204;8.116;2023-05-10T08:33:18;22.90;82.30
24164;DHT22;12319;49.204;8.116;2023-05-10T08:35:44;22.70;81.60
24164;DHT22;12319;49.204;8.116;2023-05-10T08:38:10;22.10;81.40
24164;DHT22;12319;49.204;8.116;2023-05-10T08:40:37;21.60;80.50
24164;DHT22;12319;49.204;8.116;2023-05-10T08:43:07;21.00;81.40
24164;DHT22;12319;49.204;8.116;2023-05-10T08:45:43;20.60;82.10
24164;DHT22;12319;49.204;8.116;2023-05-10T08:48:11;20.30;82.00
24164;DHT22;12319;49.204;8.116;2023-05-10T08:50:40;20.30;82.90
24164;DHT22;12319;49.204;8.116;2023-05-10T08:53:11;20.30;82.90
24164;DHT22;12319;49.204;8.116;2023-05-10T08:55:37;20.50;83.40
24164;DHT22;12319;49.204;8.116;2023-05-10T08:58:05;20.60;83.20
24164;DHT22;12319;49.204;8.116;2023-05-10T09:00:31;20.80;83.10
24164;DHT22;12319;49.204;8.116;2023-05-10T09:02:58;21.00;83.90
24164;DHT22;12319;49.204;8.116;2023-05-10T09:05:23;21.40;83.30
24164;DHT22;12319;49.204;8.116;2023-05-10T09:07:49;21.70;82.70
24164;DHT22;12319;49.204;8.116;2023-05-10T09:10:15;22.20;82.50
24164;DHT22;12319;49.204;8.116;2023-05-10T09:12:41;22.40;82.20
24164;DHT22;12319;49.204;8.116;2023-05-10T09:15:08;22.60;79.80
24164;DHT22;12319;49.204;8.116;2023-05-10T09:17:34;22.70;80.30
24164;DHT22;12319;49.204;8.116;2023-05-10T09:20:01;22.80;79.70
24164;DHT22;12319;49.204;8.116;2023-05-10T09:22:27;22.80;78.90
24164;DHT22;12319;49.204;8.116;2023-05-10T09:25:10;22.80;78.40
24164;DHT22;12319;49.204;8.116;2023-05-10T09:27:37;22.80;76.30
24164;DHT22;12319;49.204;8.116;2023-05-10T09:30:04;22.70;76.90
24164;DHT22;12319;49.204;8.116;2023-05-10T09:32:40;22.50;76.10
24164;DHT22;12319;49.204;8.116;2023-05-10T09:35:08;22.40;76.00
24164;DHT22;12319;49.204;8.116;2023-05-10T09:37:34;22.20;75.80
24164;DHT22;12319;49.204;8.116;2023-05-10T09:39:59;22.30;74.40
24164;DHT22;12319;49.204;8.116;2023-05-10T09:42:25;22.50;75.60
24164;DHT22;12319;49.204;8.116;2023-05-10T09:44:51;22.50;75.40
24164;DHT22;12319;49.204;8.116;2023-05-10T09:47:19;22.40;75.60
24164;DHT22;12319;49.204;8.116;2023-05-10T09:49:49;22.20;74.40
24164;DHT22;12319;49.204;8.116;2023-05-10T09:52:15;21.90;74.30
24164;DHT22;12319;49.204;8.116;2023-05-10T09:54:45;21.50;75.40
24164;DHT22;12319;49.204;8.116;2023-05-10T09:57:21;21.10;75.60
24164;DHT22;12319;49.204;8.116;2023-05-10T09:59:47;20.80;75.70
24164;DHT22;12319;49.204;8.116;2023-05-10T10:02:13;20.50;76.30
24164;DHT22;12319;49.204;8.116;2023-05-10T10:04:40;20.40;76.90
24164;DHT22;12319;49.204;8.116;2023-05-10T10:07:06;20.20;76.80
24164;DHT22;12319;49.204;8.116;2023-05-10T10:09:32;20.20;76.70
24164;DHT22;12319;49.204;8.116;2023-05-10T10:12:02;20.20;77.30
24164;DHT22;12319;49.204;8.116;2023-05-10T10:14:29;20.30;77.20
24164;DHT22;12319;49.204;8.116;2023-05-10T10:16:55;20.50;77.20
24164;DHT22;12319;49.204;8.116;2023-05-10T10:19:21;20.70;77.10
24164;DHT22;12319;49.204;8.116;2023-05-10T10:21:50;20.90;77.40
24164;DHT22;12319;49.204;8.116;2023-05-10T10:24:16;21.10;76.60
24164;DHT22;12319;49.204;8.116;2023-05-10T10:26:42;21.40;76.60
24164;DHT22;12319;49.204;8.116;2023-05-10T10:31:51;21.90;74.90
24164;DHT22;12319;49.204;8.116;2023-05-10T10:34:28;22.00;75.20
24164;DHT22;12319;49.204;8.116;2023-05-10T10:36:55;22.00;74.80
24164;DHT22;12319;49.204;8.116;2023-05-10T10:39:22;22.00;75.10
24164;DHT22;12319;49.204;8.116;2023-05-10T10:41:52;21.90;75.00
24164;DHT22;12319;49.204;8.116;2023-05-10T10:49:31;21.50;72.90
24164;DHT22;12319;49.204;8.116;2023-05-10T10:52:25;21.40;73.90
24164;DHT22;12319;49.204;8.116;2023-05-10T10:55:13;21.10;73.00
24164;DHT22;12319;49.204;8.116;2023-05-10T10:57:52;20.80;72.70
24164;DHT22;12319;49.204;8.116;2023-05-10T11:03:05;20.20;72.90
24164;DHT22;12319;49.204;8.116;2023-05-10T11:05:40;20.00;73.20
24164;DHT22;12319;49.204;8.116;2023-05-10T11:11:02;19.70;73.40
24164;DHT22;12319;49.204;8.116;2023-05-10T11:16:18;19.60;72.50
24164;DHT22;12319;49.204;8.116;2023-05-10T11:19:09;19.70;73.20
24164;DHT22;12319;49.204;8.116;2023-05-10T11:24:15;19.90;71.90
24164;DHT22;12319;49.204;8.116;2023-05-10T11:26:41;20.10;72.70
24164;DHT22;12319;49.204;8.116;2023-05-10T11:29:07;20.40;73.40
24164;DHT22;12319;49.204;8.116;2023-05-10T11:31:33;20.70;72.80
24164;DHT22;12319;49.204;8.116;2023-05-10T11:33:59;20.80;71.70
24164;DHT22;12319;49.204;8.116;2023-05-10T11:36:32;21.10;73.30
24164;DHT22;12319;49.204;8.116;2023-05-10T11:38:58;21.20;71.50
24164;DHT22;12319;49.204;8.116;2023-05-10T11:41:24;21.30;70.00
24164;DHT22;12319;49.204;8.116;2023-05-10T11:43:51;21.50;70.20
24164;DHT22;12319;49.204;8.116;2023-05-10T11:46:19;21.60;70.40
24164;DHT22;12319;49.204;8.116;2023-05-10T11:48:47;21.70;70.20
24164;DHT22;12319;49.204;8.116;2023-05-10T11:51:15;21.80;69.50
24164;DHT22;12319;49.204;8.116;2023-05-10T11:53:40;21.90;69.60
24164;DHT22;12319;49.204;8.116;2023-05-10T11:56:07;22.00;69.00
24164;DHT22;12319;49.204;8.116;2023-05-10T11:58:34;22.10;68.80
24164;DHT22;12319;49.204;8.116;2023-05-10T12:01:00;22.10;67.50
24164;DHT22;12319;49.204;8.116;2023-05-10T12:03:29;22.00;66.30
24164;DHT22;12319;49.204;8.116;2023-05-10T12:05:56;22.10;64.20
24164;DHT22;12319;49.204;8.116;2023-05-10T12:08:24;22.10;65.80
24164;DHT22;12319;49.204;8.116;2023-05-10T12:10:51;22.20;64.40
24164;DHT22;12319;49.204;8.116;2023-05-10T12:13:17;22.10;65.10
24164;DHT22;12319;49.204;8.116;2023-05-10T12:15:44;22.20;64.40
24164;DHT22;12319;49.204;8.116;2023-05-10T12:18:10;22.20;64.70
24164;DHT22;12319;49.204;8.116;2023-05-10T12:20:37;22.20;65.10
24164;DHT22;12319;49.204;8.116;2023-05-10T12:23:03;22.20;65.80
24164;DHT22;12319;49.204;8.116;2023-05-10T12:25:37;22.30;65.60
24164;DHT22;12319;49.204;8.116;2023-05-10T12:28:05;22.40;65.00
24164;DHT22;12319;49.204;8.116;2023-05-10T12:30:32;22.50;65.00
24164;DHT22;12319;49.204;8.116;2023-05-10T12:33:07;22.50;64.30
24164;DHT22;12319;49.204;8.116;2023-05-10T12:35:33;22.60;64.20
24164;DHT22;12319;49.204;8.116;2023-05-10T12:37:59;22.60;64.10
24164;DHT22;12319;49.204;8.116;2023-05-10T12:40:25;22.70;64.00
24164;DHT22;12319;49.204;8.116;2023-05-10T12:42:51;22.70;63.80
24164;DHT22;12319;49.204;8.116;2023-05-10T12:45:18;22.90;63.70
24164;DHT22;12319;49.204;8.116;2023-05-10T12:47:43;23.00;62.90
24164;DHT22;12319;49.204;8.116;2023-05-10T12:50:09;23.20;63.40
24164;DHT22;12319;49.204;8.116;2023-05-10T12:52:35;23.20;62.10
24164;DHT22;12319;49.204;8.116;2023-05-10T12:55:01;23.40;62.20
24164;DHT22;12319;49.204;8.116;2023-05-10T12:57:28;23.50;61.80
24164;DHT22;12319;49.204;8.116;2023-05-10T12:59:54;23.50;60.00
24164;DHT22;12319;49.204;8.116;2023-05-10T13:02:20;23.50;58.30
24164;DHT22;12319;49.204;8.116;2023-05-10T13:04:46;23.40;59.70
24164;DHT22;12319;49.204;8.116;2023-05-10T13:07:12;23.40;59.30
24164;DHT22;12319;49.204;8.116;2023-05-10T13:09:38;23.40;59.90
24164;DHT22;12319;49.204;8.116;2023-05-10T13:12:04;23.30;59.90
24164;DHT22;12319;49.204;8.116;2023-05-10T13:14:30;23.40;60.50
24164;DHT22;12319;49.204;8.116;2023-05-10T13:16:56;23.40;60.60
24164;DHT22;12319;49.204;8.116;2023-05-10T13:19:21;23.50;60.10
24164;DHT22;12319;49.204;8.116;2023-05-10T13:21:47;23.50;60.10
24164;DHT22;12319;49.204;8.116;2023-05-10T13:24:13;23.60;59.80
24164;DHT22;12319;49.204;8.116;2023-05-10T13:26:40;23.60;60.00
24164;DHT22;12319;49.204;8.116;2023-05-10T13:29:06;23.50;58.50
24164;DHT22;12319;49.204;8.116;2023-05-10T13:31:33;23.70;58.20
24164;DHT22;12319;49.204;8.116;2023-05-10T13:33:58;24.00;59.10
24164;DHT22;12319;49.204;8.116;2023-05-10T13:36:24;24.20;59.30
24164;DHT22;12319;49.204;8.116;2023-05-10T13:38:49;24.30;58.30
24164;DHT22;12319;49.204;8.116;2023-05-10T13:41:15;24.30;58.20
24164;DHT22;12319;49.204;8.116;2023-05-10T13:43:40;24.30;57.70
24164;DHT22;12319;49.204;8.116;2023-05-10T13:46:06;24.30;58.10
24164;DHT22;12319;49.204;8.116;2023-05-10T13:48:31;24.30;58.40
24164;DHT22;12319;49.204;8.116;2023-05-10T13:50:57;24.40;58.30
24164;DHT22;12319;49.204;8.116;2023-05-10T13:53:22;24.40;57.50
24164;DHT22;12319;49.204;8.116;2023-05-10T13:55:48;24.50;57.40
24164;DHT22;12319;49.204;8.116;2023-05-10T13:58:14;24.50;57.00
24164;DHT22;12319;49.204;8.116;2023-05-10T14:00:39;24.40;56.00
24164;DHT22;12319;49.204;8.116;2023-05-10T14:03:05;24.40;56.90
24164;DHT22;12319;49.204;8.116;2023-05-10T14:05:32;24.40;56.80
24164;DHT22;12319;49.204;8.116;2023-05-10T14:07:57;24.40;57.00
24164;DHT22;12319;49.204;8.116;2023-05-10T14:10:23;24.50;57.00
24164;DHT22;12319;49.204;8.116;2023-05-10T14:12:49;24.60;56.70
24164;DHT22;12319;49.204;8.116;2023-05-10T14:15:15;24.80;56.00
24164;DHT22;12319;49.204;8.116;2023-05-10T14:17:41;24.90;55.80
24164;DHT22;12319;49.204;8.116;2023-05-10T14:20:07;25.00;55.70
24164;DHT22;12319;49.204;8.116;2023-05-10T14:22:32;25.10;55.30
24164;DHT22;12319;49.204;8.116;2023-05-10T14:24:58;25.20;54.80
24164;DHT22;12319;49.204;8.116;2023-05-10T14:27:23;25.20;54.70
24164;DHT22;12319;49.204;8.116;2023-05-10T14:29:49;25.10;54.30
24164;DHT22;12319;49.204;8.116;2023-05-10T14:32:15;24.90;55.10
24164;DHT22;12319;49.204;8.116;2023-05-10T14:34:40;24.80;54.10
24164;DHT22;12319;49.204;8.116;2023-05-10T14:37:06;24.70;54.60
24164;DHT22;12319;49.204;8.116;2023-05-10T14:39:32;24.70;54.70
24164;DHT22;12319;49.204;8.116;2023-05-10T14:41:58;24.60;54.30
24164;DHT22;12319;49.204;8.116;2023-05-10T14:44:24;24.60;54.50
24164;DHT22;12319;49.204;8.116;2023-05-10T14:46:50;24.70;54.60
24164;DHT22;12319;49.204;8.116;2023-05-10T14:49:16;24.60;54.10
24164;DHT22;12319;49.204;8.116;2023-05-10T14:51:41;24.40;54.70
24164;DHT22;12319;49.204;8.116;2023-05-10T14:54:07;24.30;54.50
24164;DHT22;12319;49.204;8.116;2023-05-10T14:56:32;24.20;54.50
24164;DHT22;12319;49.204;8.116;2023-05-10T14:58:58;23.90;55.10
24164;DHT22;12319;49.204;8.116;2023-05-10T15:01:24;23.70;54.70
24164;DHT22;12319;49.204;8.116;2023-05-10T15:03:50;23.50;54.80
24164;DHT22;12319;49.204;8.116;2023-05-10T15:06:16;23.00;53.70
24164;DHT22;12319;49.204;8.116;2023-05-10T15:08:41;23.00;55.20
24164;DHT22;12319;49.204;8.116;2023-05-10T15:11:07;22.70;55.00
24164;DHT22;12319;49.204;8.116;2023-05-10T15:13:32;22.80;55.60
24164;DHT22;12319;49.204;8.116;2023-05-10T15:15:58;22.70;55.90
24164;DHT22;12319;49.204;8.116;2023-05-10T15:18:23;22.70;55.60
24164;DHT22;12319;49.204;8.116;2023-05-10T15:20:49;22.70;55.80
24164;DHT22;12319;49.204;8.116;2023-05-10T15:23:14;22.70;55.50
24164;DHT22;12319;49.204;8.116;2023-05-10T15:25:40;22.50;54.30
24164;DHT22;12319;49.204;8.116;2023-05-10T15:28:06;22.40;55.50
24164;DHT22;12319;49.204;8.116;2023-05-10T15:30:31;22.20;55.40
24164;DHT22;12319;49.204;8.116;2023-05-10T15:32:57;22.10;55.80
24164;DHT22;12319;49.204;8.116;2023-05-10T15:35:22;22.10;55.80
24164;DHT22;12319;49.204;8.116;2023-05-10T15:37:48;22.00;56.10
24164;DHT22;12319;49.204;8.116;2023-05-10T15:40:17;22.00;56.50
24164;DHT22;12319;49.204;8.116;2023-05-10T15:42:42;22.10;56.60
24164;DHT22;12319;49.204;8.116;2023-05-10T15:45:08;22.00;56.90
24164;DHT22;12319;49.204;8.116;2023-05-10T15:47:34;21.90;56.20
24164;DHT22;12319;49.204;8.116;2023-05-10T15:50:00;21.90;56.20
24164;DHT22;12319;49.204;8.116;2023-05-10T15:52:25;21.90;56.20
24164;DHT22;12319;49.204;8.116;2023-05-10T15:54:51;21.80;54.60
24164;DHT22;12319;49.204;8.116;2023-05-10T15:57:17;21.80;55.90
24164;DHT22;12319;49.204;8.116;2023-05-10T15:59:42;21.60;56.10